Time;durP1;ratioP1;P1;durP2;ratioP2;P2;SDS_P1;SDS_P2;PMS_P1;PMS_P2;Temp;Humidity;BMP_temperature;BMP_pressure;BME280_temperature;BME280_humidity;BME280_pressure;Samples;Min_cycle;Max_cycle;Signal;HPM_P1;HPM_P2
2023/12/26 00:00:05;;;;;;;3.63;2.53;;;9.90;99.90;;;;;;7370708;19;20371;-66
2023/12/26 00:02:39;;;;;;;3.28;2.40;;;9.90;99.90;;;;;;7370553;19;20888;-66
2023/12/26 00:05:05;;;;;;;4.38;2.58;;;9.70;99.90;;;;;;7371805;19;20033;-67
2023/12/26 00:07:32;;;;;;;4.47;2.17;;;9.70;99.90;;;;;;7371411;19;21385;-66
2023/12/26 00:09:59;;;;;;;3.25;2.00;;;9.90;99.90;;;;;;7372594;19;20051;-67
2023/12/26 00:12:25;;;;;;;5.35;2.35;;;9.90;99.90;;;;;;7371391;19;20088;-64
2023/12/26 00:14:52;;;;;;;7.47;2.35;;;9.80;99.90;;;;;;7371715;19;20023;-64
2023/12/26 00:17:18;;;;;;;3.75;2.30;;;9.80;99.90;;;;;;7372178;19;20015;-66
2023/12/26 00:19:46;;;;;;;4.43;2.75;;;9.80;99.90;;;;;;7373101;19;20428;-67
2023/12/26 00:22:12;;;;;;;4.20;2.83;;;9.90;99.90;;;;;;7370014;19;20022;-67
2023/12/26 00:24:38;;;;;;;4.82;3.10;;;9.90;99.90;;;;;;7369550;19;20022;-64
2023/12/26 00:27:04;;;;;;;4.45;2.92;;;10.00;99.90;;;;;;7371099;19;20462;-64
2023/12/26 00:29:35;;;;;;;4.00;2.80;;;9.80;99.90;;;;;;7369057;19;20123;-64
2023/12/26 00:32:01;;;;;;;4.93;2.92;;;10.00;99.90;;;;;;7374503;19;20014;-67
2023/12/26 00:34:27;;;;;;;4.82;2.75;;;10.00;99.90;;;;;;7369537;19;20366;-67
2023/12/26 00:36:54;;;;;;;4.10;2.58;;;9.90;99.90;;;;;;7369155;19;20311;-67
2023/12/26 00:39:20;;;;;;;3.70;2.20;;;10.00;99.90;;;;;;7370097;19;21162;-63
2023/12/26 00:41:47;;;;;;;3.55;2.55;;;9.90;99.90;;;;;;7372980;19;20018;-66
2023/12/26 00:44:13;;;;;;;3.72;2.33;;;10.00;99.90;;;;;;7365602;19;20713;-66
2023/12/26 00:46:39;;;;;;;3.08;2.03;;;10.00;99.90;;;;;;7372012;19;20014;-67
2023/12/26 00:49:05;;;;;;;3.38;2.42;;;9.90;99.90;;;;;;7367940;19;20031;-67
2023/12/26 00:51:32;;;;;;;1.95;1.45;;;9.90;99.90;;;;;;7369251;19;20026;-67
2023/12/26 00:53:58;;;;;;;3.90;1.40;;;10.00;99.90;;;;;;7368969;19;20030;-66
2023/12/26 00:56:24;;;;;;;2.70;1.30;;;10.00;99.90;;;;;;7367978;19;20050;-66
2023/12/26 00:58:51;;;;;;;3.28;1.38;;;10.00;99.90;;;;;;7368017;19;20022;-67
2023/12/26 01:01:37;;;;;;;2.65;1.40;;;9.90;99.90;;;;;;7372331;19;20031;-67
2023/12/26 01:04:03;;;;;;;3.00;1.45;;;10.10;99.90;;;;;;7367005;19;20022;-67
2023/12/26 01:06:29;;;;;;;1.73;1.20;;;10.10;99.90;;;;;;7371070;19;20019;-64
2023/12/26 01:08:56;;;;;;;2.55;0.80;;;10.00;99.90;;;;;;7369955;19;20018;-64
2023/12/26 01:11:23;;;;;;;2.38;0.80;;;10.10;99.90;;;;;;7367869;19;20050;-63
2023/12/26 01:13:49;;;;;;;1.85;1.02;;;10.00;99.90;;;;;;7370215;19;20024;-64
2023/12/26 01:16:16;;;;;;;2.47;0.80;;;10.00;99.90;;;;;;7371364;19;20062;-64
2023/12/26 01:18:42;;;;;;;2.35;0.90;;;10.00;99.90;;;;;;7374635;19;20017;-63
2023/12/26 01:21:28;;;;;;;2.53;0.65;;;10.00;99.90;;;;;;7375168;19;20018;-64
2023/12/26 01:23:55;;;;;;;2.85;0.75;;;10.00;99.90;;;;;;7370662;19;20019;-64
2023/12/26 01:26:23;;;;;;;1.33;0.70;;;10.00;99.90;;;;;;7373910;19;20019;-64
2023/12/26 01:28:49;;;;;;;3.40;0.75;;;9.90;99.90;;;;;;7372235;19;20014;-64
2023/12/26 01:31:16;;;;;;;0.93;0.50;;;9.90;99.90;;;;;;7369914;19;20014;-64
2023/12/26 01:33:42;;;;;;;2.05;0.82;;;9.90;99.90;;;;;;7369422;19;20018;-65
2023/12/26 01:36:08;;;;;;;2.63;0.50;;;9.90;99.90;;;;;;7368854;19;20776;-65
2023/12/26 01:38:35;;;;;;;3.13;0.73;;;9.90;99.90;;;;;;7373240;19;20074;-64
2023/12/26 01:41:02;;;;;;;4.65;0.70;;;9.90;99.90;;;;;;7370233;19;20018;-64
2023/12/26 01:43:28;;;;;;;3.65;0.80;;;9.80;99.90;;;;;;7369780;19;20014;-66
2023/12/26 01:46:00;;;;;;;8.02;1.00;;;9.80;99.90;;;;;;7371538;19;20816;-64
2023/12/26 01:48:29;;;;;;;2.50;0.82;;;9.80;99.90;;;;;;7361993;19;20022;-64
2023/12/26 01:50:56;;;;;;;7.25;1.25;;;9.80;99.90;;;;;;7371658;19;20034;-64
2023/12/26 01:53:22;;;;;;;4.70;1.08;;;9.60;99.90;;;;;;7372569;19;20023;-64
2023/12/26 01:55:49;;;;;;;6.80;0.90;;;9.80;99.90;;;;;;7370082;19;20026;-64
2023/12/26 01:58:17;;;;;;;5.25;1.00;;;9.70;99.90;;;;;;7369540;19;20022;-64
2023/12/26 02:00:43;;;;;;;3.60;1.00;;;9.50;99.90;;;;;;7365999;19;20014;-64
2023/12/26 02:03:09;;;;;;;7.28;1.27;;;9.70;99.90;;;;;;7370478;19;20025;-64
2023/12/26 02:05:38;;;;;;;8.23;1.08;;;9.70;99.90;;;;;;7371523;19;20021;-64
2023/12/26 02:08:05;;;;;;;6.40;1.10;;;9.60;99.90;;;;;;7368321;19;20635;-64
2023/12/26 02:10:32;;;;;;;9.00;1.33;;;9.60;99.90;;;;;;7372241;19;20550;-64
2023/12/26 02:12:59;;;;;;;7.65;1.73;;;9.60;99.90;;;;;;7370824;19;20025;-64
2023/12/26 02:15:51;;;;;;;8.15;1.52;;;9.60;99.90;;;;;;7367002;19;20052;-64
2023/12/26 02:18:21;;;;;;;12.05;1.35;;;9.50;99.90;;;;;;7372984;19;20487;-64
2023/12/26 02:20:47;;;;;;;6.43;1.15;;;9.50;99.90;;;;;;7369431;19;20019;-64
2023/12/26 02:23:14;;;;;;;9.50;2.25;;;9.50;99.90;;;;;;7372077;19;20096;-67
2023/12/26 02:25:40;;;;;;;12.75;1.50;;;9.40;99.90;;;;;;7369124;19;20022;-67
2023/12/26 02:28:07;;;;;;;12.98;1.52;;;9.50;99.90;;;;;;7368553;19;20023;-67
2023/12/26 02:30:35;;;;;;;9.63;1.27;;;9.50;99.90;;;;;;7369203;19;20454;-67
2023/12/26 02:33:04;;;;;;;7.38;1.75;;;9.40;99.90;;;;;;7372008;19;20035;-67
2023/12/26 02:35:31;;;;;;;9.35;1.73;;;9.50;99.90;;;;;;7372330;19;20018;-67
2023/12/26 02:38:01;;;;;;;8.55;1.65;;;9.40;99.90;;;;;;7376085;19;20018;-67
2023/12/26 02:40:27;;;;;;;14.60;2.13;;;9.50;99.90;;;;;;7376736;19;20106;-67
2023/12/26 02:42:54;;;;;;;11.02;1.60;;;9.60;99.90;;;;;;7377214;19;20845;-68
2023/12/26 02:45:20;;;;;;;8.07;1.77;;;9.60;99.90;;;;;;7373739;19;20054;-67
2023/12/26 02:47:47;;;;;;;14.20;2.25;;;9.50;99.90;;;;;;7375104;19;20018;-67
2023/12/26 02:50:13;;;;;;;12.13;2.08;;;9.40;99.90;;;;;;7375110;19;20658;-67
2023/12/26 02:52:42;;;;;;;11.50;2.22;;;9.70;99.90;;;;;;7377990;19;20022;-68
2023/12/26 02:55:09;;;;;;;8.60;2.20;;;9.60;99.90;;;;;;7380576;19;20035;-68
2023/12/26 02:57:35;;;;;;;10.73;2.03;;;9.60;99.90;;;;;;7370916;19;20018;-65
2023/12/26 03:00:05;;;;;;;9.57;2.10;;;9.40;99.90;;;;;;7379755;19;20224;-65
2023/12/26 03:02:33;;;;;;;9.23;2.28;;;9.60;99.90;;;;;;7376335;19;20659;-64
2023/12/26 03:05:00;;;;;;;13.60;2.05;;;9.40;99.90;;;;;;7375105;19;20022;-65
2023/12/26 03:07:27;;;;;;;15.18;2.53;;;9.30;99.90;;;;;;7368373;19;20029;-65
2023/12/26 03:09:53;;;;;;;15.77;2.58;;;9.40;99.90;;;;;;7378822;19;20030;-65
2023/12/26 03:12:19;;;;;;;10.32;2.00;;;9.30;99.90;;;;;;7378125;19;20031;-65
2023/12/26 03:14:47;;;;;;;11.73;1.90;;;9.40;99.90;;;;;;7376850;19;21101;-64
2023/12/26 03:17:13;;;;;;;11.07;2.58;;;9.40;99.90;;;;;;7375501;19;20048;-65
2023/12/26 03:19:39;;;;;;;9.68;1.98;;;9.40;99.90;;;;;;7377731;19;20014;-65
2023/12/26 03:22:06;;;;;;;7.10;1.90;;;9.30;99.90;;;;;;7375690;19;20082;-65
2023/12/26 03:24:32;;;;;;;8.98;2.28;;;9.30;99.90;;;;;;7375664;19;20758;-65
2023/12/26 03:27:01;;;;;;;10.90;2.03;;;9.50;99.90;;;;;;7373993;19;20050;-65
2023/12/26 03:29:27;;;;;;;17.00;2.45;;;9.50;99.90;;;;;;7376682;19;20085;-65
2023/12/26 03:31:53;;;;;;;10.77;2.42;;;9.50;99.90;;;;;;7375451;19;20521;-65
2023/12/26 03:34:19;;;;;;;7.78;1.83;;;9.50;99.90;;;;;;7374532;19;20518;-68
2023/12/26 03:36:48;;;;;;;5.18;0.98;;;9.10;99.90;;;;;;7376092;19;20018;-67
2023/12/26 03:39:36;;;;;;;3.70;1.02;;;8.60;99.90;;;;;;7375019;19;20027;-67
2023/12/26 03:42:03;;;;;;;4.28;0.85;;;8.20;99.90;;;;;;7379291;19;20493;-65
2023/12/26 03:44:29;;;;;;;4.72;0.82;;;8.10;99.90;;;;;;7376681;19;20042;-66
2023/12/26 03:46:56;;;;;;;3.03;0.88;;;7.90;99.90;;;;;;7370844;19;20039;-67
2023/12/26 03:49:22;;;;;;;3.35;0.90;;;7.90;99.90;;;;;;7378571;19;20011;-64
2023/12/26 03:51:48;;;;;;;4.38;1.08;;;7.90;99.90;;;;;;7374382;19;20022;-65
2023/12/26 03:54:15;;;;;;;3.45;1.42;;;7.80;99.90;;;;;;7376689;19;20025;-65
2023/12/26 03:56:41;;;;;;;9.27;1.60;;;7.90;99.90;;;;;;7373563;19;20029;-65
2023/12/26 03:59:08;;;;;;;6.03;1.50;;;7.90;99.90;;;;;;7372287;19;20031;-64
2023/12/26 04:01:35;;;;;;;8.30;1.55;;;8.00;99.90;;;;;;7373823;19;20033;-65
2023/12/26 04:04:02;;;;;;;9.27;1.88;;;8.00;99.90;;;;;;7374476;19;20021;-67
2023/12/26 04:06:29;;;;;;;9.40;1.70;;;8.10;99.90;;;;;;7373151;19;20026;-68
2023/12/26 04:08:55;;;;;;;8.27;1.90;;;8.10;99.90;;;;;;7377043;19;20022;-67
2023/12/26 04:11:22;;;;;;;7.82;1.85;;;8.00;99.90;;;;;;7373530;19;20022;-68
2023/12/26 04:13:49;;;;;;;9.93;1.70;;;8.00;99.90;;;;;;7373800;19;20109;-67
2023/12/26 04:16:16;;;;;;;9.52;2.13;;;8.00;99.90;;;;;;7368996;19;20126;-68
2023/12/26 04:18:42;;;;;;;10.48;1.90;;;8.00;99.90;;;;;;7370215;19;20046;-68
2023/12/26 04:21:09;;;;;;;11.55;1.80;;;7.90;99.90;;;;;;7373628;19;20017;-67
2023/12/26 04:23:35;;;;;;;12.15;2.38;;;8.00;99.90;;;;;;7370788;19;20014;-65
2023/12/26 04:26:02;;;;;;;8.13;1.90;;;8.00;99.90;;;;;;7372641;19;20037;-65
2023/12/26 04:28:29;;;;;;;14.15;2.38;;;7.90;99.90;;;;;;7366170;19;20086;-65
2023/12/26 04:30:55;;;;;;;11.93;1.98;;;7.90;99.90;;;;;;7371471;19;20011;-65
2023/12/26 04:33:21;;;;;;;9.43;2.15;;;7.90;99.90;;;;;;7368091;19;20466;-64
2023/12/26 04:35:47;;;;;;;13.20;2.30;;;7.90;99.90;;;;;;7372732;19;20021;-65
2023/12/26 04:38:14;;;;;;;11.15;2.10;;;7.90;99.90;;;;;;7366619;19;20053;-68
2023/12/26 04:40:40;;;;;;;11.88;2.60;;;7.80;99.90;;;;;;7373178;19;20022;-65
2023/12/26 04:43:08;;;;;;;15.07;2.88;;;7.90;99.90;;;;;;7368465;19;20390;-65
2023/12/26 04:45:41;;;;;;;13.38;2.58;;;7.90;99.90;;;;;;7372462;19;20026;-65
2023/12/26 04:48:08;;;;;;;14.68;2.58;;;8.10;99.90;;;;;;7369343;19;20019;-65
2023/12/26 04:50:35;;;;;;;11.95;2.70;;;8.10;99.90;;;;;;7369324;19;20030;-65
2023/12/26 04:53:04;;;;;;;11.73;2.83;;;8.20;99.90;;;;;;7368999;19;20018;-68
2023/12/26 04:55:51;;;;;;;11.15;2.00;;;8.10;99.90;;;;;;7368449;19;20832;-68
2023/12/26 04:58:38;;;;;;;11.80;2.50;;;8.10;99.90;;;;;;7373508;19;20041;-67
2023/12/26 05:01:04;;;;;;;15.38;2.88;;;8.10;99.90;;;;;;7371246;19;20022;-65
2023/12/26 05:03:31;;;;;;;8.88;1.88;;;8.10;99.90;;;;;;7370582;19;20137;-67
2023/12/26 05:05:57;;;;;;;11.25;2.13;;;8.10;99.90;;;;;;7370622;19;20058;-65
2023/12/26 05:08:23;;;;;;;10.35;1.83;;;8.00;99.90;;;;;;7364943;19;20019;-68
2023/12/26 05:10:50;;;;;;;11.38;2.88;;;8.10;99.90;;;;;;7370350;19;20040;-65
2023/12/26 05:13:17;;;;;;;14.88;2.25;;;8.20;99.90;;;;;;7366973;19;21220;-65
2023/12/26 05:15:44;;;;;;;12.00;2.13;;;8.20;99.90;;;;;;7371085;19;20018;-65
2023/12/26 05:18:14;;;;;;;13.27;2.63;;;8.20;99.90;;;;;;7369769;19;20015;-65
2023/12/26 05:20:40;;;;;;;9.90;2.60;;;8.20;99.90;;;;;;7371049;19;20155;-68
2023/12/26 05:23:10;;;;;;;13.43;2.17;;;8.20;99.90;;;;;;7368269;19;20078;-68
2023/12/26 05:25:36;;;;;;;11.50;2.47;;;8.20;99.90;;;;;;7369628;19;20052;-65
2023/12/26 05:28:03;;;;;;;19.42;2.60;;;8.20;99.90;;;;;;7367432;19;20015;-68
2023/12/26 05:30:29;;;;;;;10.75;2.85;;;8.20;99.90;;;;;;7368658;19;20094;-68
2023/12/26 05:32:55;;;;;;;9.48;2.10;;;8.30;99.90;;;;;;7369839;19;20014;-65
2023/12/26 05:35:23;;;;;;;9.45;2.30;;;8.40;99.90;;;;;;7367016;19;20061;-68
2023/12/26 05:37:49;;;;;;;11.27;2.22;;;8.40;99.90;;;;;;7367146;19;20783;-68
2023/12/26 05:40:15;;;;;;;12.48;2.08;;;8.50;99.90;;;;;;7365771;19;20625;-68
2023/12/26 05:42:42;;;;;;;10.73;2.25;;;8.50;99.90;;;;;;7367179;19;20014;-68
2023/12/26 05:45:08;;;;;;;11.40;2.28;;;8.60;99.90;;;;;;7368827;19;20060;-69
2023/12/26 05:47:54;;;;;;;9.93;2.03;;;8.70;99.90;;;;;;7367884;19;20044;-69
2023/12/26 05:50:21;;;;;;;10.10;2.03;;;8.60;99.90;;;;;;7367731;19;20704;-69
2023/12/26 05:52:47;;;;;;;9.38;1.80;;;8.70;99.90;;;;;;7371629;19;20637;-70
2023/12/26 05:55:14;;;;;;;10.52;2.60;;;8.70;99.90;;;;;;7366393;19;20022;-70
2023/12/26 05:57:40;;;;;;;6.15;1.70;;;8.80;99.90;;;;;;7368814;19;20054;-69
2023/12/26 06:00:07;;;;;;;11.77;2.10;;;8.80;99.90;;;;;;7366955;19;20026;-70
2023/12/26 06:02:45;;;;;;;10.23;1.73;;;8.80;99.90;;;;;;7368768;19;20029;-69
2023/12/26 06:05:13;;;;;;;8.68;1.75;;;8.80;99.90;;;;;;7368790;19;20011;-65
2023/12/26 06:07:39;;;;;;;12.77;2.10;;;8.80;99.90;;;;;;7366379;19;20033;-65
2023/12/26 06:10:06;;;;;;;9.93;2.08;;;8.80;99.90;;;;;;7366166;19;20094;-66
2023/12/26 06:12:33;;;;;;;10.40;2.00;;;8.80;99.90;;;;;;7377256;19;20030;-66
2023/12/26 06:15:00;;;;;;;10.75;1.90;;;8.70;99.90;;;;;;7376765;19;20086;-69
2023/12/26 06:17:46;;;;;;;12.82;2.00;;;8.80;99.90;;;;;;7375409;19;20037;-69
2023/12/26 06:20:14;;;;;;;11.32;1.92;;;8.80;99.90;;;;;;7373363;19;20010;-69
2023/12/26 06:22:44;;;;;;;12.88;1.77;;;8.80;99.90;;;;;;7377772;19;20015;-69
2023/12/26 06:25:10;;;;;;;11.95;2.03;;;8.80;99.90;;;;;;7370655;19;20070;-69
2023/12/26 06:27:37;;;;;;;9.25;1.80;;;8.90;99.90;;;;;;7375057;19;20014;-66
2023/12/26 06:30:04;;;;;;;9.15;1.95;;;8.90;99.90;;;;;;7373785;19;20029;-66
2023/12/26 06:32:31;;;;;;;11.05;2.50;;;8.90;99.90;;;;;;7371379;19;20075;-65
2023/12/26 06:34:57;;;;;;;9.07;2.17;;;9.00;99.90;;;;;;7373394;19;20025;-66
2023/12/26 06:37:24;;;;;;;12.73;2.25;;;9.00;99.90;;;;;;7374127;19;20022;-67
2023/12/26 06:39:50;;;;;;;10.48;2.10;;;9.00;99.90;;;;;;7373972;19;20112;-67
2023/12/26 06:42:36;;;;;;;14.10;2.20;;;9.00;99.90;;;;;;7374052;19;20438;-65
2023/12/26 06:45:03;;;;;;;11.90;2.45;;;9.00;99.90;;;;;;7374349;19;20612;-69
2023/12/26 06:47:29;;;;;;;10.80;2.17;;;9.00;99.90;;;;;;7370308;19;20752;-66
2023/12/26 06:49:55;;;;;;;10.63;2.10;;;9.10;99.90;;;;;;7372623;19;20015;-65
2023/12/26 06:52:21;;;;;;;10.43;1.98;;;9.00;99.90;;;;;;7377429;19;20509;-66
2023/12/26 06:54:48;;;;;;;11.85;2.80;;;9.00;99.90;;;;;;7373002;19;20022;-69
2023/12/26 06:57:17;;;;;;;11.02;2.53;;;9.00;99.90;;;;;;7376190;19;20018;-66
2023/12/26 06:59:46;;;;;;;13.70;2.33;;;9.00;99.90;;;;;;7371643;19;20045;-69
2023/12/26 07:02:13;;;;;;;14.95;2.42;;;9.00;99.90;;;;;;7375407;19;20393;-70
2023/12/26 07:04:45;;;;;;;14.05;3.20;;;9.00;99.90;;;;;;7374928;19;20019;-66
2023/12/26 07:07:12;;;;;;;15.30;2.50;;;9.00;99.90;;;;;;7378090;19;20025;-66
2023/12/26 07:09:38;;;;;;;13.68;2.30;;;8.90;99.90;;;;;;7372313;19;20021;-66
2023/12/26 07:12:06;;;;;;;14.00;2.33;;;9.00;99.90;;;;;;7375632;19;20006;-66
2023/12/26 07:14:32;;;;;;;16.80;2.72;;;9.00;99.90;;;;;;7374057;19;20783;-69
2023/12/26 07:16:58;;;;;;;11.98;2.47;;;8.90;99.90;;;;;;7376327;19;20037;-69
2023/12/26 07:19:25;;;;;;;12.38;2.95;;;8.90;99.90;;;;;;7370499;19;20018;-69
2023/12/26 07:21:52;;;;;;;14.07;2.80;;;8.90;99.90;;;;;;7375483;19;20011;-69
2023/12/26 07:24:20;;;;;;;13.20;2.60;;;8.90;99.90;;;;;;7373298;19;20014;-69
2023/12/26 07:26:47;;;;;;;7.35;2.28;;;8.90;99.90;;;;;;7369027;19;20110;-69
2023/12/26 07:29:13;;;;;;;13.18;2.15;;;8.90;99.90;;;;;;7369874;19;20014;-69
2023/12/26 07:31:39;;;;;;;15.60;2.75;;;8.90;99.90;;;;;;7367974;19;20019;-66
2023/12/26 07:34:08;;;;;;;14.52;3.17;;;8.80;99.90;;;;;;7371842;19;20060;-65
2023/12/26 07:36:35;;;;;;;10.60;2.03;;;8.80;99.90;;;;;;7371728;19;20052;-66
2023/12/26 07:39:01;;;;;;;12.88;3.00;;;8.80;99.90;;;;;;7366536;19;20023;-66
2023/12/26 07:41:27;;;;;;;15.80;2.65;;;8.80;99.90;;;;;;7377088;19;20014;-66
2023/12/26 07:43:54;;;;;;;11.95;2.92;;;8.80;99.90;;;;;;7371475;19;20046;-66
2023/12/26 07:46:21;;;;;;;11.40;2.65;;;8.80;99.90;;;;;;7369799;19;20015;-66
2023/12/26 07:48:47;;;;;;;11.65;2.50;;;8.70;99.90;;;;;;7370823;19;20042;-66
2023/12/26 07:51:14;;;;;;;16.73;2.35;;;8.70;99.90;;;;;;7369463;19;20417;-66
2023/12/26 07:53:40;;;;;;;13.60;2.58;;;8.70;99.90;;;;;;7376296;19;20376;-70
2023/12/26 07:56:06;;;;;;;13.18;2.60;;;8.70;99.90;;;;;;7369896;19;20022;-70
2023/12/26 07:58:34;;;;;;;13.40;3.15;;;8.60;99.90;;;;;;7373801;19;20035;-66
2023/12/26 08:01:21;;;;;;;12.55;3.28;;;8.60;99.90;;;;;;7366631;19;20022;-66
2023/12/26 08:03:47;;;;;;;17.17;2.80;;;8.60;99.90;;;;;;7365635;19;20633;-65
2023/12/26 08:06:14;;;;;;;18.90;2.50;;;8.60;99.90;;;;;;7368524;19;20055;-66
2023/12/26 08:08:40;;;;;;;17.55;3.22;;;8.60;99.90;;;;;;7368071;19;20030;-66
2023/12/26 08:11:06;;;;;;;16.70;3.45;;;8.60;99.90;;;;;;7369460;19;20086;-66
2023/12/26 08:13:32;;;;;;;13.77;2.47;;;8.60;99.90;;;;;;7369981;19;20042;-70
2023/12/26 08:15:59;;;;;;;13.73;2.47;;;8.60;99.90;;;;;;7368685;19;21222;-66
2023/12/26 08:18:25;;;;;;;13.48;3.20;;;8.70;99.90;;;;;;7369418;19;20018;-66
2023/12/26 08:20:51;;;;;;;15.57;3.47;;;8.70;99.90;;;;;;7367106;19;20505;-66
2023/12/26 08:23:18;;;;;;;13.38;2.13;;;8.70;99.90;;;;;;7368518;19;20022;-70
2023/12/26 08:25:44;;;;;;;15.95;2.90;;;8.70;99.90;;;;;;7367123;19;21502;-71
2023/12/26 08:28:12;;;;;;;16.73;2.65;;;8.70;99.90;;;;;;7369122;19;20022;-66
2023/12/26 08:30:41;;;;;;;16.65;3.10;;;8.80;99.90;;;;;;7361538;19;20031;-66
2023/12/26 08:33:08;;;;;;;15.35;3.28;;;8.70;99.90;;;;;;7363457;19;20026;-70
2023/12/26 08:35:34;;;;;;;16.45;2.92;;;8.70;99.90;;;;;;7371643;19;20033;-67
2023/12/26 08:38:01;;;;;;;11.80;2.60;;;8.70;99.90;;;;;;7368773;19;20890;-70
2023/12/26 08:40:27;;;;;;;14.52;3.13;;;8.70;99.90;;;;;;7368840;19;20022;-70
2023/12/26 08:42:53;;;;;;;17.33;3.10;;;8.80;99.90;;;;;;7367979;19;20041;-70
2023/12/26 08:45:20;;;;;;;15.20;2.72;;;8.80;99.90;;;;;;7369464;19;20620;-70
2023/12/26 08:47:46;;;;;;;17.00;2.78;;;8.80;99.90;;;;;;7366920;19;20037;-71
2023/12/26 08:50:12;;;;;;;15.27;2.88;;;8.80;99.90;;;;;;7370812;19;20022;-66
2023/12/26 08:52:39;;;;;;;13.05;3.13;;;8.80;99.90;;;;;;7368320;19;20011;-66
2023/12/26 08:55:07;;;;;;;13.85;3.58;;;8.80;99.90;;;;;;7375136;19;20015;-66
2023/12/26 08:57:33;;;;;;;16.13;3.35;;;8.80;99.90;;;;;;7365449;19;20010;-71
2023/12/26 09:00:00;;;;;;;14.20;2.83;;;8.80;99.90;;;;;;7370016;19;20015;-71
2023/12/26 09:02:26;;;;;;;16.90;3.47;;;8.80;99.90;;;;;;7366829;19;20070;-71
2023/12/26 09:04:52;;;;;;;13.77;2.83;;;8.80;99.90;;;;;;7369984;19;20031;-71
2023/12/26 09:07:40;;;;;;;13.60;2.88;;;8.80;99.90;;;;;;7365886;19;20344;-67
2023/12/26 09:10:26;;;;;;;15.07;3.50;;;8.80;99.90;;;;;;7370314;19;20014;-66
2023/12/26 09:12:52;;;;;;;14.18;2.95;;;8.90;99.90;;;;;;7367545;19;20014;-66
2023/12/26 09:15:21;;;;;;;18.48;3.25;;;8.90;99.90;;;;;;7371894;19;20018;-67
2023/12/26 09:17:49;;;;;;;16.48;3.20;;;9.00;99.90;;;;;;7367858;19;20041;-66
2023/12/26 09:20:15;;;;;;;14.50;3.63;;;9.00;99.90;;;;;;7370683;19;20446;-67
2023/12/26 09:22:42;;;;;;;15.73;3.22;;;9.00;99.90;;;;;;7366977;19;20015;-65
2023/12/26 09:25:09;;;;;;;13.52;3.38;;;9.10;99.90;;;;;;7366516;19;20019;-65
2023/12/26 09:27:37;;;;;;;14.85;3.58;;;9.20;99.90;;;;;;7367973;19;20026;-64
2023/12/26 09:30:03;;;;;;;18.10;2.92;;;9.40;99.90;;;;;;7364095;19;20015;-66
2023/12/26 09:32:29;;;;;;;19.02;3.08;;;9.70;99.90;;;;;;7367366;19;20232;-66
2023/12/26 09:34:56;;;;;;;15.10;2.95;;;9.90;99.90;;;;;;7370126;19;20044;-64
2023/12/26 09:37:22;;;;;;;20.13;4.00;;;9.80;99.90;;;;;;7364237;19;20020;-65
2023/12/26 09:39:48;;;;;;;27.10;11.63;;;10.00;99.90;;;;;;7364588;19;20745;-66
2023/12/26 09:42:21;;;;;;;13.57;4.10;;;10.10;99.90;;;;;;7369272;19;20078;-67
2023/12/26 09:44:49;;;;;;;31.85;17.83;;;10.30;99.90;;;;;;7368807;19;20018;-60
2023/12/26 09:47:19;;;;;;;13.77;4.70;;;10.10;99.90;;;;;;7367745;19;20098;-63
2023/12/26 09:49:47;;;;;;;25.60;11.68;;;9.90;99.90;;;;;;7363426;19;20015;-67
2023/12/26 09:52:13;;;;;;;17.75;6.65;;;9.90;99.90;;;;;;7368170;19;20029;-66
2023/12/26 09:54:43;;;;;;;14.05;4.03;;;9.90;99.90;;;;;;7368007;19;20018;-67
2023/12/26 09:57:10;;;;;;;16.48;5.05;;;9.90;99.90;;;;;;7367129;19;20015;-68
2023/12/26 09:59:37;;;;;;;13.57;2.83;;;10.10;99.90;;;;;;7367383;19;20025;-67
2023/12/26 10:02:22;;;;;;;18.92;4.05;;;10.30;99.90;;;;;;7367877;19;20025;-67
2023/12/26 10:04:48;;;;;;;12.55;3.35;;;10.50;99.90;;;;;;7371046;19;20772;-67
2023/12/26 10:07:18;;;;;;;15.95;3.35;;;10.80;99.90;;;;;;7365465;19;21641;-67
2023/12/26 10:09:44;;;;;;;14.32;3.90;;;10.80;99.90;;;;;;7365252;19;20007;-67
2023/12/26 10:12:11;;;;;;;15.77;2.85;;;10.90;99.90;;;;;;7369462;19;20034;-67
2023/12/26 10:14:37;;;;;;;18.65;3.30;;;10.80;99.90;;;;;;7366970;19;20386;-62
2023/12/26 10:17:06;;;;;;;47.70;29.90;;;10.90;99.90;;;;;;7369606;19;20019;-62
2023/12/26 10:19:32;;;;;;;29.30;14.05;;;11.00;99.90;;;;;;7368706;19;20022;-63
2023/12/26 10:21:58;;;;;;;27.30;12.13;;;11.00;99.90;;;;;;7367430;19;20022;-62
2023/12/26 10:24:47;;;;;;;23.38;8.18;;;10.90;99.90;;;;;;7368269;19;20018;-62
2023/12/26 10:27:14;;;;;;;15.57;4.75;;;10.60;99.90;;;;;;7368801;19;20018;-62
2023/12/26 10:29:41;;;;;;;14.45;3.85;;;10.40;99.90;;;;;;7366502;19;20470;-62
2023/12/26 10:32:07;;;;;;;15.13;3.70;;;10.30;99.90;;;;;;7363810;19;20015;-63
2023/12/26 10:34:34;;;;;;;17.73;4.07;;;10.20;99.90;;;;;;7366416;19;20011;-61
2023/12/26 10:37:00;;;;;;;17.58;4.25;;;10.10;99.90;;;;;;7367523;19;20022;-61
2023/12/26 10:39:28;;;;;;;15.50;3.55;;;10.20;99.90;;;;;;7364679;19;20015;-61
2023/12/26 10:42:19;;;;;;;15.50;3.45;;;10.10;99.90;;;;;;7363903;19;20018;-62
2023/12/26 10:45:00;;;;;;;12.23;3.33;;;10.00;99.90;;;;;;7371087;19;20026;-61
2023/12/26 10:47:30;;;;;;;13.48;2.65;;;9.90;99.90;;;;;;7366570;19;20026;-67
2023/12/26 10:50:01;;;;;;;16.48;3.83;;;9.90;99.90;;;;;;7366982;19;20825;-67
2023/12/26 10:52:29;;;;;;;16.38;3.03;;;9.90;99.90;;;;;;7365541;19;20027;-67
2023/12/26 10:55:00;;;;;;;20.65;4.90;;;9.90;99.90;;;;;;7367653;19;20049;-69
2023/12/26 10:57:47;;;;;;;14.80;5.00;;;9.90;99.90;;;;;;7370907;19;20022;-67
2023/12/26 13:51:26;;;;;;;15.35;3.15;;;9.40;99.90;;;;;;7367836;19;20014;-65
2023/12/26 13:53:53;;;;;;;10.52;2.17;;;9.20;99.90;;;;;;7366362;19;20014;-62
2023/12/26 13:56:20;;;;;;;11.48;2.65;;;9.10;99.90;;;;;;7368078;19;20022;-65
2023/12/26 13:59:06;;;;;;;14.43;2.22;;;9.10;99.90;;;;;;7366132;19;21409;-65
2023/12/26 14:01:33;;;;;;;6.82;1.80;;;9.00;99.90;;;;;;7368330;19;20025;-66
2023/12/26 14:04:00;;;;;;;10.35;2.17;;;9.00;99.90;;;;;;7358631;19;20066;-65
2023/12/26 14:06:27;;;;;;;10.88;2.05;;;9.00;99.90;;;;;;7367324;19;20022;-65
2023/12/26 14:08:57;;;;;;;11.65;3.35;;;9.00;99.90;;;;;;7365587;19;20097;-61
2023/12/26 14:11:26;;;;;;;17.63;7.82;;;9.10;99.90;;;;;;7364638;19;20528;-61
2023/12/26 14:13:52;;;;;;;12.70;2.45;;;9.10;99.90;;;;;;7364799;19;20478;-65
2023/12/26 14:16:19;;;;;;;10.32;4.55;;;9.00;99.90;;;;;;7358705;19;20469;-65
2023/12/26 14:18:45;;;;;;;10.13;3.03;;;8.90;99.90;;;;;;7368697;19;20084;-65
2023/12/26 14:21:12;;;;;;;4.85;1.60;;;8.90;99.90;;;;;;7362588;19;20673;-65
2023/12/26 14:23:38;;;;;;;7.55;1.50;;;8.80;99.90;;;;;;7365480;19;20025;-65
2023/12/26 14:26:04;;;;;;;9.13;2.90;;;8.70;99.90;;;;;;7361067;19;20037;-61
2023/12/26 14:28:51;;;;;;;7.70;1.75;;;8.60;99.90;;;;;;7361807;19;21352;-61
2023/12/26 14:31:18;;;;;;;10.73;1.33;;;8.60;99.90;;;;;;7369111;19;20018;-61
2023/12/26 14:33:45;;;;;;;9.27;1.10;;;8.60;99.90;;;;;;7376764;19;20689;-61
2023/12/26 14:36:12;;;;;;;4.80;1.20;;;8.40;99.90;;;;;;7377313;19;20481;-61
2023/12/26 14:38:38;;;;;;;9.77;1.33;;;8.30;99.90;;;;;;7378373;19;20018;-61
2023/12/26 14:41:04;;;;;;;9.68;1.63;;;8.20;99.90;;;;;;7368779;19;20010;-61
2023/12/26 14:43:53;;;;;;;62.03;40.85;;;8.20;99.90;;;;;;7374663;19;20022;-61
2023/12/26 14:46:19;;;;;;;12.48;4.90;;;8.20;99.90;;;;;;7377267;19;20019;-61
2023/12/26 14:48:46;;;;;;;8.65;1.20;;;8.10;99.90;;;;;;7367697;19;20022;-65
2023/12/26 14:51:12;;;;;;;6.93;2.15;;;8.00;99.90;;;;;;7369703;19;20082;-65
2023/12/26 14:53:38;;;;;;;9.40;1.50;;;7.90;99.90;;;;;;7370707;19;20015;-65
2023/12/26 14:56:04;;;;;;;7.85;2.70;;;7.90;99.90;;;;;;7370798;19;20014;-65
2023/12/26 14:58:31;;;;;;;6.55;1.50;;;7.80;99.90;;;;;;7363796;19;20074;-61
2023/12/26 15:00:57;;;;;;;7.65;1.75;;;7.80;99.90;;;;;;7371453;19;20022;-62
2023/12/26 15:03:23;;;;;;;6.72;1.27;;;7.70;99.90;;;;;;7372540;19;20022;-61
2023/12/26 15:05:49;;;;;;;6.38;1.20;;;7.70;99.90;;;;;;7373361;19;20022;-61
2023/12/26 15:08:36;;;;;;;7.82;1.00;;;7.70;99.90;;;;;;7363388;19;20098;-63
2023/12/26 15:11:03;;;;;;;5.95;1.50;;;7.60;99.90;;;;;;7374967;19;20376;-61
2023/12/26 15:13:29;;;;;;;6.18;1.23;;;7.60;99.90;;;;;;7366207;19;20486;-61
2023/12/26 15:15:55;;;;;;;4.90;1.23;;;7.60;99.90;;;;;;7372886;19;20022;-61
2023/12/26 15:18:21;;;;;;;8.43;1.80;;;7.60;99.90;;;;;;7374287;19;20418;-62
2023/12/26 15:20:48;;;;;;;7.85;1.45;;;7.60;99.90;;;;;;7372378;19;20023;-61
2023/12/26 15:23:14;;;;;;;6.72;1.80;;;7.60;99.90;;;;;;7366628;19;20505;-61
2023/12/26 15:25:40;;;;;;;5.05;0.80;;;7.50;99.90;;;;;;7362266;19;20826;-65
2023/12/26 15:28:07;;;;;;;9.70;1.77;;;7.50;99.90;;;;;;7365857;19;20020;-66
2023/12/26 15:30:33;;;;;;;5.25;1.05;;;7.40;99.90;;;;;;7372272;19;20011;-66
2023/12/26 15:32:59;;;;;;;7.95;1.58;;;7.40;99.90;;;;;;7370406;19;20057;-61
2023/12/26 15:35:26;;;;;;;30.30;17.42;;;7.40;99.90;;;;;;7370672;19;20021;-61
2023/12/26 15:37:53;;;;;;;10.65;4.20;;;7.30;99.90;;;;;;7372598;19;20089;-67
2023/12/26 15:40:19;;;;;;;9.00;1.80;;;7.30;99.90;;;;;;7365121;19;20119;-67
2023/12/26 15:42:46;;;;;;;11.40;3.83;;;7.30;99.90;;;;;;7367134;19;20338;-66
2023/12/26 15:45:12;;;;;;;5.72;1.25;;;7.30;99.90;;;;;;7368361;19;20878;-66